createdAt,value
2018-07-07T00:00:19.692Z,13.30
2018-07-07T00:02:48.029Z,13.30
2018-07-07T00:05:16.557Z,13.20
2018-07-07T00:07:44.881Z,13.20
2018-07-07T00:10:14.175Z,13.20
2018-07-07T00:12:43.005Z,13.20
2018-07-07T00:15:18.269Z,13.20
2018-07-07T00:17:47.053Z,13.10
2018-07-07T00:20:15.969Z,13.20
2018-07-07T00:22:44.396Z,13.10
2018-07-07T00:25:15.986Z,13.10
2018-07-07T00:27:45.288Z,13.10
2018-07-07T00:30:13.759Z,13.10
2018-07-07T00:32:42.143Z,13.10
2018-07-07T00:35:10.625Z,13.00
2018-07-07T00:37:39.049Z,13.00
2018-07-07T00:40:08.261Z,13.00
2018-07-07T00:42:36.913Z,13.00
2018-07-07T00:45:05.291Z,13.00
2018-07-07T00:47:33.693Z,13.00
2018-07-07T00:50:02.151Z,13.00
2018-07-07T00:52:30.658Z,13.00
2018-07-07T00:54:59.033Z,13.00
2018-07-07T00:57:27.435Z,13.00
2018-07-07T00:59:55.797Z,13.00
2018-07-07T01:02:24.710Z,13.00
2018-07-07T01:04:54.315Z,13.00
2018-07-07T01:07:23.337Z,12.90
2018-07-07T01:09:51.720Z,13.00
2018-07-07T01:12:20.092Z,13.00
2018-07-07T01:14:48.987Z,13.00
2018-07-07T01:17:17.458Z,13.00
2018-07-07T01:19:45.902Z,13.00
2018-07-07T01:22:14.687Z,13.00
2018-07-07T01:24:43.508Z,13.00
2018-07-07T01:27:11.913Z,13.00
2018-07-07T01:29:41.309Z,13.00
2018-07-07T01:32:09.861Z,12.90
2018-07-07T01:34:38.239Z,12.90
2018-07-07T01:37:06.945Z,12.90
2018-07-07T01:39:35.256Z,12.90
2018-07-07T01:42:03.609Z,12.90
2018-07-07T01:44:31.993Z,12.90
2018-07-07T01:47:00.322Z,12.90
2018-07-07T01:49:28.650Z,12.80
2018-07-07T01:51:57.041Z,12.80
2018-07-07T01:54:25.446Z,12.80
2018-07-07T01:56:53.935Z,12.80
2018-07-07T01:59:22.286Z,12.80
2018-07-07T02:01:50.749Z,12.80
2018-07-07T02:04:19.926Z,12.70
2018-07-07T02:06:48.321Z,12.70
2018-07-07T02:09:16.633Z,12.70
2018-07-07T02:11:44.981Z,12.70
2018-07-07T02:14:13.529Z,12.70
2018-07-07T02:16:41.945Z,12.70
2018-07-07T02:19:10.284Z,12.70
2018-07-07T02:21:38.734Z,12.70
2018-07-07T02:24:07.198Z,12.70
2018-07-07T02:26:35.560Z,12.70
2018-07-07T02:29:03.985Z,12.70
2018-07-07T02:31:32.363Z,12.80
2018-07-07T02:34:00.786Z,12.70
2018-07-07T02:36:29.135Z,12.70
2018-07-07T02:38:57.505Z,12.80
2018-07-07T02:41:25.858Z,12.80
2018-07-07T02:43:54.234Z,12.80
2018-07-07T02:46:22.701Z,12.80
2018-07-07T02:48:51.025Z,12.80
2018-07-07T02:51:19.372Z,12.80
2018-07-07T02:53:47.734Z,12.80
2018-07-07T03:01:12.097Z,12.90
2018-07-07T03:03:40.369Z,12.90
2018-07-07T03:06:08.674Z,12.90
2018-07-07T03:08:36.992Z,13.00
2018-07-07T03:11:05.285Z,13.00
2018-07-07T03:13:33.615Z,13.00
2018-07-07T03:16:01.911Z,13.00
2018-07-07T03:18:30.142Z,13.10
2018-07-07T03:20:58.509Z,13.10
2018-07-07T03:23:26.754Z,13.10
2018-07-07T03:25:55.074Z,13.10
2018-07-07T03:28:23.325Z,13.20
2018-07-07T03:30:51.665Z,13.20
2018-07-07T03:35:47.945Z,13.20
2018-07-07T03:38:16.205Z,13.30
2018-07-07T03:40:44.516Z,13.30
2018-07-07T03:43:12.788Z,13.30
2018-07-07T03:45:41.019Z,13.30
2018-07-07T03:48:09.333Z,13.30
2018-07-07T03:50:37.673Z,13.30
2018-07-07T03:55:33.974Z,13.20
2018-07-07T03:58:02.252Z,13.30
2018-07-07T04:00:30.501Z,13.30
2018-07-07T04:02:58.746Z,13.30
2018-07-07T04:05:27.007Z,13.30
2018-07-07T04:07:55.266Z,13.20
2018-07-07T04:10:23.565Z,13.30
2018-07-07T04:12:51.862Z,13.20
2018-07-07T04:15:20.121Z,13.20
2018-07-07T04:17:48.474Z,13.20
2018-07-07T04:20:16.742Z,13.20
2018-07-07T04:22:45.014Z,13.30
2018-07-07T04:25:13.294Z,13.30
2018-07-07T04:27:41.958Z,13.30
2018-07-07T04:30:10.225Z,13.30
2018-07-07T04:32:38.547Z,13.40
2018-07-07T04:35:06.794Z,13.40
2018-07-07T04:37:35.098Z,13.40
2018-07-07T04:40:03.347Z,13.50
2018-07-07T04:42:31.704Z,13.50
2018-07-07T04:45:00.030Z,13.50
2018-07-07T04:47:28.309Z,13.50
2018-07-07T04:49:56.645Z,13.50
2018-07-07T04:52:25.003Z,13.60
2018-07-07T04:54:53.209Z,13.60
2018-07-07T04:57:22.318Z,13.60
2018-07-07T04:59:50.821Z,13.70
2018-07-07T05:02:19.246Z,13.70
2018-07-07T05:04:47.534Z,13.70
2018-07-07T05:07:15.781Z,13.70
2018-07-07T05:09:44.073Z,13.70
2018-07-07T05:12:12.370Z,13.80
2018-07-07T05:14:40.609Z,13.80
2018-07-07T05:17:08.902Z,13.80
2018-07-07T05:19:37.154Z,13.90
2018-07-07T05:22:05.430Z,13.90
2018-07-07T05:24:33.806Z,14.00
2018-07-07T05:27:02.104Z,14.00
2018-07-07T05:29:30.567Z,14.10
2018-07-07T05:31:58.906Z,14.10
2018-07-07T05:34:27.138Z,14.10
2018-07-07T05:36:55.434Z,14.10
2018-07-07T05:39:23.839Z,14.20
2018-07-07T05:41:52.218Z,14.30
2018-07-07T05:44:20.509Z,14.30
2018-07-07T05:46:48.926Z,14.40
2018-07-07T05:49:17.257Z,14.50
2018-07-07T05:51:45.605Z,14.60
2018-07-07T05:54:13.826Z,14.60
2018-07-07T05:59:10.066Z,14.70
2018-07-07T06:01:38.339Z,14.80
2018-07-07T06:04:06.582Z,14.80
2018-07-07T06:06:34.858Z,14.90
2018-07-07T06:09:03.212Z,15.00
2018-07-07T06:11:31.461Z,15.00
2018-07-07T06:13:59.732Z,15.10
2018-07-07T06:16:27.933Z,15.20
2018-07-07T06:18:56.185Z,15.20
2018-07-07T06:21:24.490Z,15.30
2018-07-07T06:23:52.763Z,15.40
2018-07-07T06:26:21.340Z,15.50
2018-07-07T06:28:49.741Z,15.60
2018-07-07T06:31:18.006Z,15.60
2018-07-07T06:33:46.243Z,15.70
2018-07-07T06:36:14.610Z,15.90
2018-07-07T06:38:42.937Z,16.00
2018-07-07T06:41:11.266Z,16.10
2018-07-07T06:43:39.550Z,16.20
2018-07-07T06:46:08.278Z,16.30
2018-07-07T06:48:36.549Z,16.40
2018-07-07T06:51:04.817Z,16.50
2018-07-07T06:53:33.087Z,16.60
2018-07-07T06:56:01.374Z,16.70
2018-07-07T06:58:29.789Z,16.80
2018-07-07T07:00:58.051Z,16.80
2018-07-07T07:03:26.565Z,16.90
2018-07-07T07:05:54.797Z,16.90
2018-07-07T07:08:23.050Z,17.00
2018-07-07T07:10:51.405Z,17.00
2018-07-07T07:13:19.798Z,17.10
2018-07-07T07:15:48.042Z,17.30
2018-07-07T07:18:16.641Z,17.40
2018-07-07T07:20:44.923Z,17.50
2018-07-07T07:23:13.243Z,17.50
2018-07-07T07:25:41.549Z,17.60
2018-07-07T07:28:09.801Z,17.70
2018-07-07T07:30:38.037Z,17.80
2018-07-07T07:33:06.642Z,17.90
2018-07-07T07:35:34.902Z,18.00
2018-07-07T07:38:03.277Z,18.10
2018-07-07T07:40:32.077Z,18.20
2018-07-07T07:43:00.382Z,18.20
2018-07-07T07:45:28.665Z,18.20
2018-07-07T07:47:56.922Z,18.20
2018-07-07T07:50:25.261Z,18.30
2018-07-07T07:52:53.498Z,18.30
2018-07-07T07:55:21.786Z,18.40
2018-07-07T07:57:50.045Z,18.50
2018-07-07T08:00:18.337Z,18.60
2018-07-07T08:02:46.594Z,18.70
2018-07-07T08:05:14.901Z,18.80
2018-07-07T08:07:43.182Z,19.00
2018-07-07T08:10:11.431Z,19.10
2018-07-07T08:12:39.698Z,19.10
2018-07-07T08:15:07.964Z,19.20
2018-07-07T08:17:36.406Z,19.40
2018-07-07T08:20:04.942Z,19.50
2018-07-07T08:22:33.245Z,19.70
2018-07-07T08:25:01.489Z,19.80
2018-07-07T08:27:29.882Z,20.00
2018-07-07T08:29:58.201Z,20.10
2018-07-07T08:32:26.450Z,20.30
2018-07-07T08:34:54.858Z,20.60
2018-07-07T08:37:23.149Z,20.90
2018-07-07T08:39:51.402Z,21.20
2018-07-07T08:42:19.640Z,21.40
2018-07-07T08:44:47.911Z,21.80
2018-07-07T08:47:16.152Z,22.10
2018-07-07T08:49:44.428Z,22.40
2018-07-07T08:52:13.011Z,22.80
2018-07-07T08:54:41.246Z,23.00
2018-07-07T08:57:09.564Z,23.20
2018-07-07T08:59:37.803Z,23.60
2018-07-07T09:02:06.060Z,24.00
2018-07-07T09:04:34.583Z,24.30
2018-07-07T09:07:02.848Z,24.60
2018-07-07T09:09:31.106Z,24.90
2018-07-07T09:11:59.345Z,25.20
2018-07-07T09:14:28.183Z,25.40
2018-07-07T09:16:56.449Z,25.50
2018-07-07T09:19:24.856Z,25.70
2018-07-07T09:21:53.190Z,25.80
2018-07-07T09:24:21.665Z,26.00
2018-07-07T09:26:50.116Z,26.10
2018-07-07T09:29:18.530Z,26.30
2018-07-07T09:31:47.071Z,26.60
2018-07-07T09:34:15.443Z,26.90
2018-07-07T09:36:43.770Z,27.10
2018-07-07T09:39:12.114Z,27.10
2018-07-07T09:41:40.578Z,27.00
2018-07-07T09:44:08.876Z,27.00
2018-07-07T09:46:37.205Z,26.90
2018-07-07T09:49:05.492Z,26.80
2018-07-07T09:54:01.702Z,26.50
2018-07-07T09:56:30.035Z,26.40
2018-07-07T09:58:58.319Z,26.30
2018-07-07T10:01:26.635Z,26.20
2018-07-07T10:03:54.916Z,26.00
2018-07-07T10:06:23.160Z,25.80
2018-07-07T10:08:52.398Z,25.70
2018-07-07T10:11:20.722Z,25.60
2018-07-07T10:13:49.000Z,25.60
2018-07-07T10:16:17.314Z,25.50
2018-07-07T10:18:45.584Z,25.50
2018-07-07T10:21:13.869Z,25.30
2018-07-07T10:23:42.325Z,25.10
2018-07-07T10:26:10.907Z,25.10
2018-07-07T10:28:42.681Z,25.10
2018-07-07T10:31:11.233Z,25.10
2018-07-07T10:33:39.506Z,25.00
2018-07-07T10:36:08.416Z,25.00
2018-07-07T10:38:36.930Z,24.90
2018-07-07T10:41:05.214Z,24.80
2018-07-07T10:43:33.494Z,24.80
2018-07-07T10:46:01.814Z,24.80
2018-07-07T10:48:30.105Z,24.80
2018-07-07T10:50:58.534Z,24.80
2018-07-07T10:53:26.862Z,24.90
2018-07-07T10:55:55.173Z,24.90
2018-07-07T10:58:23.505Z,25.00
2018-07-07T11:00:51.978Z,25.10
2018-07-07T11:03:20.282Z,25.30
2018-07-07T11:05:48.594Z,25.50
2018-07-07T11:08:16.909Z,25.80
2018-07-07T11:10:45.191Z,26.20
2018-07-07T11:13:13.520Z,26.50
2018-07-07T11:15:41.799Z,26.90
2018-07-07T11:18:10.070Z,27.30
2018-07-07T11:20:38.444Z,27.80
2018-07-07T11:23:06.710Z,28.20
2018-07-07T11:25:34.962Z,28.70
2018-07-07T11:28:03.430Z,29.00
2018-07-07T11:30:31.723Z,29.30
2018-07-07T11:32:59.994Z,29.50
2018-07-07T11:35:28.235Z,29.50
2018-07-07T11:37:56.538Z,29.40
2018-07-07T11:40:24.830Z,29.50
2018-07-07T11:42:53.177Z,29.60
2018-07-07T11:45:21.464Z,29.70
2018-07-07T11:47:50.545Z,29.80
2018-07-07T11:50:18.884Z,29.80
2018-07-07T11:52:47.136Z,29.90
2018-07-07T11:55:15.434Z,30.00
2018-07-07T11:57:43.698Z,29.90
2018-07-07T12:00:12.058Z,29.90
2018-07-07T12:02:40.377Z,30.10
2018-07-07T12:05:08.705Z,30.20
2018-07-07T12:07:37.092Z,30.30
2018-07-07T12:10:05.551Z,30.60
2018-07-07T12:12:33.838Z,30.80
2018-07-07T12:15:02.130Z,30.80
2018-07-07T12:17:30.498Z,30.80
2018-07-07T12:19:58.737Z,30.80
2018-07-07T12:22:27.158Z,31.00
2018-07-07T12:24:55.502Z,31.10
2018-07-07T12:27:23.934Z,31.20
2018-07-07T12:29:52.320Z,31.30
2018-07-07T12:32:20.639Z,31.40
2018-07-07T12:34:48.963Z,31.60
2018-07-07T12:37:17.337Z,31.80
2018-07-07T12:39:45.613Z,31.80
2018-07-07T12:42:13.906Z,32.00
2018-07-07T12:44:42.258Z,32.00
2018-07-07T12:47:10.587Z,32.00
2018-07-07T12:49:38.826Z,32.20
2018-07-07T12:52:07.203Z,32.40
2018-07-07T12:54:35.502Z,32.60
2018-07-07T12:57:03.808Z,32.70
2018-07-07T12:59:32.367Z,32.80
2018-07-07T13:02:00.642Z,32.60
2018-07-07T13:04:29.020Z,32.50
2018-07-07T13:06:57.257Z,32.30
2018-07-07T13:09:25.572Z,32.20
2018-07-07T13:11:54.070Z,32.20
2018-07-07T13:14:22.329Z,32.30
2018-07-07T13:16:50.688Z,32.40
2018-07-07T13:19:19.102Z,32.40
2018-07-07T13:21:47.367Z,32.40
2018-07-07T13:24:15.637Z,32.30
2018-07-07T13:26:43.926Z,32.40
2018-07-07T13:29:12.189Z,32.30
2018-07-07T13:31:40.479Z,32.20
2018-07-07T13:34:08.722Z,32.10
2018-07-07T13:36:36.963Z,31.90
2018-07-07T13:39:06.507Z,31.80
2018-07-07T13:41:34.807Z,31.90
2018-07-07T13:44:03.101Z,32.00
2018-07-07T13:46:31.338Z,31.90
2018-07-07T13:48:59.661Z,31.80
2018-07-07T13:51:27.926Z,31.80
2018-07-07T13:53:56.282Z,31.80
2018-07-07T13:56:24.535Z,31.70
2018-07-07T13:58:55.885Z,31.60
2018-07-07T14:01:24.127Z,31.50
2018-07-07T14:03:52.388Z,31.60
2018-07-07T14:06:20.943Z,31.70
2018-07-07T14:08:49.190Z,31.90
2018-07-07T14:11:17.439Z,32.10
2018-07-07T14:13:45.729Z,32.00
2018-07-07T14:16:13.987Z,31.90
2018-07-07T14:18:42.345Z,31.90
2018-07-07T14:21:10.678Z,31.90
2018-07-07T14:23:38.988Z,31.80
2018-07-07T14:26:07.251Z,31.90
2018-07-07T14:28:35.517Z,31.90
2018-07-07T14:31:03.886Z,31.80
2018-07-07T14:33:32.142Z,31.70
2018-07-07T14:36:00.435Z,31.70
2018-07-07T14:38:33.029Z,31.60
2018-07-07T14:41:15.698Z,31.60
2018-07-07T14:43:57.847Z,31.50
2018-07-07T14:46:26.646Z,31.40
2018-07-07T14:48:54.946Z,31.10
2018-07-07T14:51:23.225Z,30.80
2018-07-07T14:53:51.501Z,30.40
2018-07-07T14:56:20.770Z,30.30
2018-07-07T14:58:49.607Z,30.30
2018-07-07T15:01:17.886Z,30.30
2018-07-07T15:03:46.144Z,30.20
2018-07-07T15:06:14.418Z,29.90
2018-07-07T15:08:42.702Z,29.50
2018-07-07T15:11:11.381Z,28.70
2018-07-07T15:13:39.878Z,27.90
2018-07-07T15:16:08.170Z,27.10
2018-07-07T15:21:05.051Z,25.90
2018-07-07T15:23:33.367Z,25.40
2018-07-07T15:26:02.232Z,25.00
2018-07-07T15:28:30.547Z,24.60
2018-07-07T15:30:58.822Z,24.20
2018-07-07T15:33:27.151Z,23.90
2018-07-07T15:35:55.434Z,23.60
2018-07-07T15:38:23.714Z,23.40
2018-07-07T15:40:52.158Z,23.20
2018-07-07T15:45:48.601Z,22.90
2018-07-07T15:48:16.912Z,22.70
2018-07-07T15:50:45.195Z,22.50
2018-07-07T15:53:13.519Z,22.40
2018-07-07T15:55:41.758Z,22.30
2018-07-07T15:58:10.427Z,22.10
2018-07-07T16:00:38.722Z,21.90
2018-07-07T16:03:07.241Z,21.70
2018-07-07T16:05:35.529Z,21.50
2018-07-07T16:10:31.773Z,21.30
2018-07-07T16:13:00.107Z,21.20
2018-07-07T16:15:28.395Z,21.10
2018-07-07T16:17:56.674Z,21.10
2018-07-07T16:20:25.040Z,21.00
2018-07-07T16:22:53.406Z,21.00
2018-07-07T16:25:22.775Z,20.90
2018-07-07T16:27:51.000Z,20.80
2018-07-07T16:30:19.305Z,20.80
2018-07-07T16:32:47.584Z,20.70
2018-07-07T16:37:45.107Z,20.50
2018-07-07T16:40:13.379Z,20.50
2018-07-07T16:42:42.683Z,20.40
2018-07-07T16:45:11.110Z,20.40
2018-07-07T16:47:39.408Z,20.40
2018-07-07T16:50:08.198Z,20.30
2018-07-07T16:52:36.681Z,20.20
2018-07-07T16:55:04.938Z,20.10
2018-07-07T16:57:33.310Z,20.10
2018-07-07T17:00:01.711Z,19.90
2018-07-07T17:02:30.090Z,19.90
2018-07-07T17:04:58.402Z,19.80
2018-07-07T17:07:26.682Z,19.70
2018-07-07T17:09:55.021Z,19.70
2018-07-07T17:12:23.311Z,19.60
2018-07-07T17:19:48.114Z,19.40
2018-07-07T17:22:16.461Z,19.40
2018-07-07T17:24:44.815Z,19.40
2018-07-07T17:27:13.326Z,19.30
2018-07-07T17:29:41.778Z,19.30
2018-07-07T17:32:10.264Z,19.20
2018-07-07T17:34:38.540Z,19.20
2018-07-07T17:37:06.831Z,19.10
2018-07-07T17:39:35.553Z,19.10
2018-07-07T17:42:03.860Z,19.10
2018-07-07T17:44:32.206Z,19.00
2018-07-07T17:47:00.505Z,18.90
2018-07-07T17:49:28.839Z,18.90
2018-07-07T17:51:58.931Z,18.80
2018-07-07T17:54:27.262Z,18.70
2018-07-07T17:56:55.713Z,18.70
2018-07-07T17:59:24.024Z,18.60
2018-07-07T18:01:53.162Z,18.60
2018-07-07T18:04:21.690Z,18.50
2018-07-07T18:06:49.945Z,18.40
2018-07-07T18:09:18.201Z,18.40
2018-07-07T18:11:46.566Z,18.30
2018-07-07T18:14:14.839Z,18.30
2018-07-07T18:16:43.366Z,18.20
2018-07-07T18:19:11.719Z,18.20
2018-07-07T18:21:40.134Z,18.10
2018-07-07T18:24:08.455Z,18.10
2018-07-07T18:26:36.710Z,18.10
2018-07-07T18:29:05.200Z,18.00
2018-07-07T18:31:33.510Z,18.00
2018-07-07T18:34:01.863Z,17.90
2018-07-07T18:36:30.207Z,17.90
2018-07-07T18:38:58.568Z,17.90
2018-07-07T18:41:27.339Z,17.80
2018-07-07T18:43:55.691Z,17.80
2018-07-07T18:46:23.949Z,17.70
2018-07-07T18:48:52.232Z,17.70
2018-07-07T18:51:20.505Z,17.60
2018-07-07T18:53:48.778Z,17.60
2018-07-07T18:56:17.144Z,17.50
2018-07-07T18:58:45.422Z,17.50
2018-07-07T19:01:13.730Z,17.40
2018-07-07T19:03:42.081Z,17.40
2018-07-07T19:06:10.362Z,17.40
2018-07-07T19:08:38.786Z,17.30
2018-07-07T19:11:07.081Z,17.20
2018-07-07T19:13:35.357Z,17.20
2018-07-07T19:16:03.787Z,17.10
2018-07-07T19:18:32.799Z,17.10
2018-07-07T19:21:06.371Z,17.00
2018-07-07T19:23:40.050Z,17.00
2018-07-07T19:26:13.681Z,16.90
2018-07-07T19:28:41.976Z,16.90
2018-07-07T19:31:10.277Z,16.80
2018-07-07T19:33:43.984Z,16.70
2018-07-07T19:36:17.942Z,16.70
2018-07-07T19:38:46.314Z,16.60
2018-07-07T19:41:14.561Z,16.60
2018-07-07T19:43:42.830Z,16.50
2018-07-07T19:46:11.121Z,16.50
2018-07-07T19:48:39.369Z,16.40
2018-07-07T19:51:07.698Z,16.40
2018-07-07T19:53:36.247Z,16.30
2018-07-07T19:56:04.447Z,16.30
2018-07-07T19:58:32.760Z,16.30
2018-07-07T20:01:01.067Z,16.20
2018-07-07T20:03:29.357Z,16.20
2018-07-07T20:05:57.634Z,16.10
2018-07-07T20:08:25.955Z,16.10
2018-07-07T20:10:54.234Z,16.00
2018-07-07T20:13:22.574Z,16.00
2018-07-07T20:16:16.799Z,16.00
2018-07-07T20:19:11.514Z,15.90
2018-07-07T20:21:48.493Z,15.90
2018-07-07T20:24:18.262Z,15.80
2018-07-07T20:26:51.850Z,15.70
2018-07-07T20:29:20.137Z,15.70
2018-07-07T20:31:49.334Z,15.70
2018-07-07T20:34:19.662Z,15.60
2018-07-07T20:36:47.934Z,15.60
2018-07-07T20:39:16.250Z,15.50
2018-07-07T20:41:44.550Z,15.50
2018-07-07T20:44:13.069Z,15.50
2018-07-07T20:46:41.345Z,15.40
2018-07-07T20:49:09.634Z,15.40
2018-07-07T20:51:38.205Z,15.40
2018-07-07T20:54:06.774Z,15.30
2018-07-07T20:56:35.014Z,15.30
2018-07-07T20:59:03.301Z,15.30
2018-07-07T21:01:31.594Z,15.20
2018-07-07T21:04:00.078Z,15.20
2018-07-07T21:06:29.161Z,15.20
2018-07-07T21:08:57.526Z,15.10
2018-07-07T21:11:26.164Z,15.10
2018-07-07T21:13:54.385Z,15.10
2018-07-07T21:16:22.675Z,15.00
2018-07-07T21:21:18.978Z,15.00
2018-07-07T21:23:47.307Z,14.90
2018-07-07T21:26:15.522Z,14.90
2018-07-07T21:28:43.802Z,14.90
2018-07-07T21:31:12.059Z,14.80
2018-07-07T21:33:40.342Z,14.80
2018-07-07T21:36:08.686Z,14.80
2018-07-07T21:38:36.941Z,14.80
2018-07-07T21:41:05.217Z,14.70
2018-07-07T21:43:33.526Z,14.70
2018-07-07T21:46:01.847Z,14.70
2018-07-07T21:48:30.135Z,14.60
2018-07-07T21:50:58.446Z,14.60
2018-07-07T21:53:26.726Z,14.60
2018-07-07T21:55:54.973Z,14.50
2018-07-07T21:58:26.975Z,14.50
2018-07-07T22:01:11.815Z,14.50
2018-07-07T22:03:46.199Z,14.50
2018-07-07T22:06:19.750Z,14.40
2018-07-07T22:08:48.082Z,14.40
2018-07-07T22:11:16.426Z,14.40
2018-07-07T22:13:44.734Z,14.30
2018-07-07T22:16:13.005Z,14.40
2018-07-07T22:18:41.259Z,14.30
2018-07-07T22:21:20.977Z,14.30
2018-07-07T22:23:49.249Z,14.30
2018-07-07T22:26:17.528Z,14.20
2018-07-07T22:28:45.761Z,14.20
2018-07-07T22:31:14.038Z,14.20
2018-07-07T22:33:42.374Z,14.10
2018-07-07T22:36:16.079Z,14.10
2018-07-07T22:38:49.755Z,14.10
2018-07-07T22:41:17.994Z,14.10
2018-07-07T22:43:46.270Z,14.10
2018-07-07T22:46:14.569Z,14.00
2018-07-07T22:48:42.848Z,14.00
2018-07-07T22:51:11.087Z,14.00
2018-07-07T22:53:39.353Z,14.00
2018-07-07T22:56:07.619Z,14.00
2018-07-07T22:58:35.850Z,14.00
2018-07-07T23:03:32.098Z,13.90
2018-07-07T23:06:00.413Z,14.00
2018-07-07T23:08:28.711Z,13.90
2018-07-07T23:10:56.994Z,13.90
2018-07-07T23:13:25.281Z,13.90
2018-07-07T23:15:53.571Z,13.90
2018-07-07T23:18:21.842Z,13.90
2018-07-07T23:20:50.269Z,13.90
2018-07-07T23:23:18.519Z,13.90
2018-07-07T23:25:46.818Z,13.90
2018-07-07T23:28:15.103Z,13.90
2018-07-07T23:30:43.386Z,13.90
2018-07-07T23:33:11.726Z,13.90
2018-07-07T23:35:39.989Z,13.80
2018-07-07T23:38:08.390Z,13.80
2018-07-07T23:43:04.674Z,13.80
2018-07-07T23:45:32.930Z,13.70
2018-07-07T23:48:01.166Z,13.70
2018-07-07T23:50:29.406Z,13.70
2018-07-07T23:52:57.630Z,13.60
2018-07-07T23:55:25.905Z,13.70
2018-07-07T23:57:54.159Z,13.70
